Time;durP1;ratioP1;P1;durP2;ratioP2;P2;SDS_P1;SDS_P2;PMS_P1;PMS_P2;Temp;Humidity;BMP_temperature;BMP_pressure;BME280_temperature;BME280_humidity;BME280_pressure;Samples;Min_cycle;Max_cycle;Signal;HPM_P1;HPM_P2
2023/03/02 00:21:09;;;;;;;13.38;8.18;;;;;;;-2.68;80.78;102324.72;6093895;23;20021;-79
2023/03/02 00:29:24;;;;;;;14.70;8.35;;;;;;;-1.69;80.97;102462.81;6277509;22;20082;-78
2023/03/02 00:32:16;;;;;;;12.95;8.45;;;;;;;-1.65;81.25;102463.72;6275769;22;20011;-78
2023/03/02 00:35:17;;;;;;;;;;;;;;;;;;;;;
2023/03/02 00:38:10;;;;;;;13.95;8.27;;;;;;;-1.54;80.85;102463.03;6172115;22;20090;-78
2023/03/02 00:41:25;;;;;;;13.55;7.95;;;;;;;-1.58;81.08;102463.81;6275950;22;20004;-78
2023/03/02 00:44:16;;;;;;;14.95;8.25;;;;;;;-1.59;81.07;102468.84;6275811;22;20413;-79
2023/03/02 00:47:00;;;;;;;12.25;8.25;;;;;;;-1.63;81.45;102455.31;6275450;22;20006;-78
2023/03/02 00:49:35;;;;;;;14.93;9.05;;;;;;;-2.11;82.02;102387.13;6275879;22;20008;-78
2023/03/02 00:54:36;;;;;;;13.95;8.90;;;;;;;-2.87;82.24;102255.31;6258753;22;20031;-76
2023/03/02 00:57:16;;;;;;;15.50;9.25;;;;;;;-1.67;82.16;102453.56;6275636;22;20011;-78
2023/03/02 00:59:41;;;;;;;14.93;8.48;;;;;;;-3.05;82.64;102222.19;6275910;22;20024;-78
2023/03/02 01:14:35;;;;;;;14.25;9.32;;;;;;;-1.88;83.31;102453.25;6264311;22;20028;-78
2023/03/02 01:17:42;;;;;;;15.75;9.65;;;;;;;-1.93;83.90;102454.88;6275424;22;20430;-78
2023/03/02 01:23:02;;;;;;;14.43;8.85;;;;;;;-2.96;84.23;102299.00;6278333;22;20077;-79
2023/03/02 01:25:49;;;;;;;15.52;9.55;;;;;;;-2.03;84.98;102448.84;6275151;22;20004;-78
2023/03/02 01:28:32;;;;;;;17.75;9.95;;;;;;;-3.32;85.11;102235.25;6275811;22;20000;-78
2023/03/02 01:31:00;;;;;;;16.17;10.27;;;;;;;-2.51;86.15;102361.22;6275618;22;20000;-78
2023/03/02 01:33:43;;;;;;;15.00;9.85;;;;;;;-3.01;85.41;102277.00;6275738;22;20437;-78
2023/03/02 01:36:26;;;;;;;15.95;10.60;;;;;;;-2.70;85.79;102321.31;6277432;22;20000;-79
2023/03/02 01:39:07;;;;;;;19.15;10.70;;;;;;;-3.26;86.25;102215.97;6225045;22;20491;-77
2023/03/02 01:41:51;;;;;;;15.15;9.70;;;;;;;-1.87;86.83;102437.22;6277316;22;20008;-78
2023/03/02 01:44:36;;;;;;;17.23;10.00;;;;;;;-2.78;86.70;102290.84;6250347;22;20007;-78
2023/03/02 01:47:48;;;;;;;18.77;11.35;;;;;;;-1.81;87.27;102430.59;6277834;22;20379;-78
2023/03/02 01:50:28;;;;;;;18.33;11.13;;;;;;;-1.81;87.42;102429.72;6277923;22;20018;-78
2023/03/02 01:53:23;;;;;;;18.80;10.98;;;;;;;-1.86;87.94;102431.38;6277037;22;20006;-78
2023/03/02 01:56:01;;;;;;;18.80;11.65;;;;;;;-3.20;88.67;102213.53;6250448;22;20003;-78
2023/03/02 01:58:53;;;;;;;23.48;12.52;;;;;;;-1.88;89.58;102427.94;6277715;22;20010;-78
2023/03/02 02:01:57;;;;;;;21.85;13.05;;;;;;;-2.22;90.12;102373.47;6277274;22;20004;-77
2023/03/02 02:05:03;;;;;;;23.63;13.68;;;;;;;-1.87;91.37;102417.84;6233594;22;20003;-77
2023/03/02 02:07:48;;;;;;;24.05;14.07;;;;;;;-3.23;92.17;102195.81;6277130;22;20030;-78
2023/03/02 02:14:18;;;;;;;27.55;17.15;;;;;;;-1.92;94.20;102431.28;6095007;23;20017;-78
2023/03/02 02:17:09;;;;;;;30.98;18.60;;;;;;;-3.22;95.71;102202.56;6095081;23;20385;-78
2023/03/02 02:20:13;;;;;;;33.67;19.80;;;;;;;-1.94;96.67;102413.53;6094953;23;20345;-77
2023/03/02 02:23:27;;;;;;;38.55;22.75;;;;;;;-1.92;98.15;102416.06;6095172;23;20048;-77
2023/03/02 02:33:12;;;;;;;43.75;26.02;;;;;;;-1.89;100.00;102411.03;6037121;23;20040;-78
2023/03/02 02:35:39;;;;;;;48.38;25.27;;;;;;;-2.92;100.00;102236.72;6038512;23;20364;-78
2023/03/02 02:38:06;;;;;;;48.67;26.08;;;;;;;-2.33;100.00;102331.16;6037344;23;20039;-78
2023/03/02 02:40:47;;;;;;;47.75;27.00;;;;;;;-1.87;100.00;102409.38;6037409;23;20154;-77
2023/03/02 02:43:15;;;;;;;50.13;27.45;;;;;;;-1.84;100.00;102405.22;6037258;23;20011;-77
2023/03/02 02:45:40;;;;;;;47.17;27.98;;;;;;;-1.88;100.00;102398.41;6037021;23;20067;-78
2023/03/02 02:48:18;;;;;;;50.67;29.40;;;;;;;-2.08;100.00;102369.44;6037301;23;20008;-78
2023/03/02 02:50:43;;;;;;;54.10;28.02;;;;;;;-1.96;100.00;102389.88;6180406;23;20005;-78
2023/03/02 02:53:19;;;;;;;52.42;29.35;;;;;;;-1.99;100.00;102381.38;6216221;23;20103;-78
2023/03/02 02:55:47;;;;;;;53.05;30.08;;;;;;;-1.88;100.00;102388.28;6216323;23;20047;-77
2023/03/02 02:58:51;;;;;;;56.50;30.08;;;;;;;-1.86;100.00;102388.31;6215918;23;20004;-78
2023/03/02 03:01:19;;;;;;;55.38;30.92;;;;;;;-1.84;100.00;102384.13;6093852;23;20093;-78
2023/03/02 03:04:12;;;;;;;60.70;34.38;;;;;;;-1.88;100.00;102384.91;6094908;23;20010;-78
2023/03/02 03:06:58;;;;;;;58.83;32.65;;;;;;;-1.88;100.00;102382.38;6119217;23;20013;-78
2023/03/02 03:09:24;;;;;;;60.03;31.15;;;;;;;-1.93;100.00;102387.38;6123921;23;20010;-78
2023/03/02 03:12:18;;;;;;;60.78;32.58;;;;;;;-1.97;100.00;102388.16;6123605;23;20393;-77
2023/03/02 03:14:44;;;;;;;58.33;32.55;;;;;;;-1.97;100.00;102384.78;6122776;23;20088;-77
2023/03/02 03:17:13;;;;;;;60.90;32.65;;;;;;;-1.92;100.00;102388.22;6123214;23;20089;-77
2023/03/02 03:19:41;;;;;;;64.90;34.28;;;;;;;-1.92;100.00;102390.75;6099416;23;20010;-77
2023/03/02 03:22:07;;;;;;;61.78;33.30;;;;;;;-2.14;100.00;102354.19;6123581;23;20010;-77
2023/03/02 03:24:34;;;;;;;67.35;34.08;;;;;;;-1.96;100.00;102378.91;6146679;23;20025;-77
2023/03/02 03:27:04;;;;;;;67.28;35.40;;;;;;;-2.04;100.00;102363.59;6153114;23;20012;-77
2023/03/02 03:29:31;;;;;;;64.22;34.13;;;;;;;-1.98;100.00;102370.41;6152809;23;20005;-77
2023/03/02 03:31:58;;;;;;;67.75;34.55;;;;;;;-1.93;100.00;102381.47;6152744;23;20021;-76
2023/03/02 03:34:25;;;;;;;67.07;35.22;;;;;;;-1.96;100.00;102389.03;6152982;23;20097;-78
2023/03/02 03:36:51;;;;;;;68.30;35.67;;;;;;;-1.96;100.00;102386.50;6174008;22;20038;-77
2023/03/02 03:39:17;;;;;;;69.53;35.25;;;;;;;-2.17;100.00;102360.03;6276909;22;20007;-77
2023/03/02 03:41:43;;;;;;;64.28;33.13;;;;;;;-2.04;100.00;102387.25;6249095;22;20448;-78
2023/03/02 03:44:09;;;;;;;66.63;34.45;;;;;;;-2.05;100.00;102385.53;6276335;22;20004;-77
2023/03/02 03:46:35;;;;;;;67.45;34.25;;;;;;;-2.05;100.00;102388.06;6275963;22;20026;-78
2023/03/02 03:49:00;;;;;;;66.40;34.10;;;;;;;-2.10;100.00;102386.28;6276014;22;20429;-78
2023/03/02 03:51:26;;;;;;;65.05;33.20;;;;;;;-2.14;100.00;102379.50;6276351;22;20003;-78
2023/03/02 03:54:01;;;;;;;65.13;33.40;;;;;;;-2.12;100.00;102383.75;6276244;22;20022;-77
2023/03/02 03:56:34;;;;;;;68.50;33.65;;;;;;;-2.12;100.00;102381.22;6276058;22;20022;-77
2023/03/02 03:59:07;;;;;;;67.03;34.50;;;;;;;-2.27;100.00;102368.31;6275773;22;20065;-78
2023/03/02 04:01:40;;;;;;;71.30;35.08;;;;;;;-2.18;100.00;102380.25;6276033;22;20014;-78
2023/03/02 04:04:08;;;;;;;67.10;34.38;;;;;;;-2.15;100.00;102388.78;6276187;22;20006;-78
2023/03/02 04:06:34;;;;;;;68.95;34.83;;;;;;;-2.56;100.00;102313.94;6276358;22;20057;-78
2023/03/02 04:09:03;;;;;;;68.47;34.70;;;;;;;-2.15;100.00;102381.19;6275938;22;20425;-78
2023/03/02 04:11:30;;;;;;;64.25;31.35;;;;;;;-2.16;100.00;102384.53;6275736;22;20426;-79
2023/03/02 04:13:57;;;;;;;64.43;32.53;;;;;;;-2.27;100.00;102373.38;6275941;22;20014;-78
2023/03/02 04:16:22;;;;;;;67.43;34.22;;;;;;;-2.22;100.00;102378.53;6275745;22;20000;-79
2023/03/02 04:18:47;;;;;;;65.68;34.17;;;;;;;-2.22;100.00;102386.13;6249310;22;20007;-78
2023/03/02 04:23:55;;;;;;;65.82;32.97;;;;;;;-3.53;100.00;102192.81;6274827;22;20073;-77
2023/03/02 04:26:20;;;;;;;67.45;32.97;;;;;;;-2.37;100.00;102379.13;6275927;22;20031;-77
2023/03/02 04:28:49;;;;;;;64.70;32.40;;;;;;;-2.66;100.00;102345.81;6273575;22;20333;-76
2023/03/02 04:31:15;;;;;;;62.45;31.95;;;;;;;-2.87;100.00;102315.97;6273914;22;20521;-77
2023/03/02 04:33:40;;;;;;;67.07;34.50;;;;;;;-3.51;100.00;102223.97;6275734;22;20071;-78
2023/03/02 04:36:06;;;;;;;63.67;32.83;;;;;;;-2.44;100.00;102398.44;6276130;22;20090;-79
2023/03/02 04:44:24;;;;;;;66.43;34.40;;;;;;;-3.57;100.00;102217.13;6275768;22;20065;-77
2023/03/02 04:46:52;;;;;;;67.22;32.67;;;;;;;-3.47;100.00;102230.75;6275894;22;20007;-78
2023/03/02 04:49:35;;;;;;;68.20;33.95;;;;;;;-3.47;100.00;102235.81;6276269;22;20003;-78
2023/03/02 04:52:01;;;;;;;71.80;34.53;;;;;;;-2.49;100.00;102389.91;6276288;22;20090;-77
2023/03/02 04:54:27;;;;;;;68.97;34.65;;;;;;;-2.48;100.00;102396.69;6276062;22;20030;-77
2023/03/02 04:56:53;;;;;;;67.45;32.97;;;;;;;-2.46;100.00;102382.41;6275902;22;20031;-77
2023/03/02 04:59:22;;;;;;;67.88;33.88;;;;;;;-2.43;100.00;102391.72;6276247;22;20313;-77
2023/03/02 05:01:48;;;;;;;67.07;34.08;;;;;;;-2.41;100.00;102385.84;6276439;22;20008;-77
2023/03/02 05:04:14;;;;;;;68.25;34.30;;;;;;;-2.40;100.00;102389.22;6275533;22;20349;-78
2023/03/02 05:06:39;;;;;;;76.57;35.05;;;;;;;-2.40;100.00;102386.69;6275838;22;20003;-78
2023/03/02 05:09:06;;;;;;;71.47;33.38;;;;;;;-2.41;100.00;102392.56;6276733;22;20082;-78
2023/03/02 05:11:32;;;;;;;71.85;35.70;;;;;;;-2.40;100.00;102394.28;6277673;22;20004;-77
2023/03/02 05:14:02;;;;;;;65.47;31.45;;;;;;;-2.42;100.00;102388.34;6277836;22;20031;-77
2023/03/02 05:16:30;;;;;;;73.00;34.03;;;;;;;-2.52;100.00;102366.28;6277711;22;20000;-77
2023/03/02 05:18:57;;;;;;;68.55;32.25;;;;;;;-2.52;100.00;102372.19;6277873;22;20376;-77
2023/03/02 05:21:22;;;;;;;70.22;34.42;;;;;;;-2.62;100.00;102355.16;6277563;22;20003;-78
2023/03/02 05:23:48;;;;;;;72.53;35.17;;;;;;;-2.52;100.00;102369.66;6277797;22;20077;-78
2023/03/02 05:26:14;;;;;;;67.60;32.35;;;;;;;-2.44;100.00;102390.84;6277585;22;20081;-77
2023/03/02 05:28:40;;;;;;;69.35;33.08;;;;;;;-2.65;100.00;102363.56;6278017;22;20004;-79
2023/03/02 05:31:06;;;;;;;73.50;32.65;;;;;;;-2.58;100.00;102377.13;6277531;22;20010;-78
2023/03/02 05:33:32;;;;;;;74.28;34.80;;;;;;;-2.62;100.00;102383.81;6275131;22;20033;-77
2023/03/02 05:35:59;;;;;;;71.70;33.85;;;;;;;-2.53;100.00;102394.91;6277435;22;20000;-78
2023/03/02 05:38:26;;;;;;;72.03;33.90;;;;;;;-2.56;100.00;102387.25;6250064;22;20008;-79
2023/03/02 05:40:52;;;;;;;81.68;35.78;;;;;;;-2.50;100.00;102395.81;6248789;22;20120;-77
2023/03/02 05:43:19;;;;;;;78.72;35.35;;;;;;;-2.50;100.00;102390.75;6247047;23;20430;-77
2023/03/02 05:45:45;;;;;;;67.88;33.03;;;;;;;-2.52;100.00;102389.88;6246512;23;20084;-79
2023/03/02 05:48:12;;;;;;;82.82;35.63;;;;;;;-2.81;100.00;102346.44;6246958;23;20036;-78
2023/03/02 05:50:38;;;;;;;72.18;34.90;;;;;;;-2.49;100.00;102394.13;6246530;23;20028;-78
2023/03/02 05:53:04;;;;;;;76.47;33.90;;;;;;;-2.71;100.00;102365.97;6246912;23;20004;-77
2023/03/02 05:55:29;;;;;;;76.15;35.33;;;;;;;-2.57;100.00;102383.88;6246593;23;20058;-77
2023/03/02 05:57:55;;;;;;;78.15;35.50;;;;;;;-2.56;100.00;102385.59;6219780;23;20011;-78
2023/03/02 06:00:22;;;;;;;76.03;34.55;;;;;;;-2.69;100.00;102371.91;6246571;23;20012;-77
2023/03/02 06:02:47;;;;;;;81.18;37.45;;;;;;;-2.58;100.00;102392.31;6247187;23;20004;-75
2023/03/02 06:05:15;;;;;;;79.78;34.40;;;;;;;-2.62;100.00;102381.28;6246292;23;20326;-77
2023/03/02 06:07:41;;;;;;;79.50;35.88;;;;;;;-2.63;100.00;102384.66;6246742;23;20075;-77
2023/03/02 06:10:07;;;;;;;77.93;36.17;;;;;;;-2.82;100.00;102359.91;6246505;23;20086;-77
2023/03/02 06:12:33;;;;;;;81.00;36.63;;;;;;;-2.82;100.00;102367.47;6246448;23;20023;-77
2023/03/02 06:14:58;;;;;;;87.15;38.63;;;;;;;-2.75;100.00;102378.53;6246810;23;20004;-77
2023/03/02 06:17:25;;;;;;;80.63;35.28;;;;;;;-2.70;100.00;102390.44;6246784;23;20083;-78
2023/03/02 06:19:50;;;;;;;85.45;37.42;;;;;;;-2.70;100.00;102382.84;6246581;23;20000;-78
2023/03/02 06:22:16;;;;;;;81.43;37.25;;;;;;;-2.68;100.00;102386.25;6246599;23;20053;-78
2023/03/02 06:24:41;;;;;;;81.72;35.90;;;;;;;-2.74;100.00;102382.78;6246639;23;20004;-78
2023/03/02 06:27:06;;;;;;;85.68;37.03;;;;;;;-2.80;100.00;102373.41;6246421;23;20008;-78
2023/03/02 06:29:32;;;;;;;79.38;36.50;;;;;;;-2.67;100.00;102380.34;6246673;23;20311;-78
2023/03/02 06:31:57;;;;;;;79.93;35.80;;;;;;;-2.69;100.00;102389.59;6246289;23;20315;-78
2023/03/02 06:34:23;;;;;;;75.95;33.60;;;;;;;-2.85;100.00;102367.44;6246278;23;20000;-77
2023/03/02 06:36:50;;;;;;;77.85;34.92;;;;;;;-2.66;100.00;102409.88;6246453;23;20001;-78
2023/03/02 06:39:16;;;;;;;77.03;35.92;;;;;;;-2.66;100.00;102402.28;6246590;22;20023;-77
2023/03/02 06:41:45;;;;;;;75.10;33.17;;;;;;;-2.64;100.00;102403.19;6246274;23;20016;-78
2023/03/02 06:44:11;;;;;;;80.10;35.55;;;;;;;-2.62;100.00;102401.53;6246709;23;20011;-77
2023/03/02 06:46:38;;;;;;;74.03;34.28;;;;;;;-2.63;100.00;102404.03;6246529;23;20000;-77
2023/03/02 06:49:03;;;;;;;75.68;35.38;;;;;;;-2.79;100.00;102380.16;6219512;23;20430;-79
2023/03/02 06:51:29;;;;;;;72.30;35.33;;;;;;;-2.57;100.00;102406.66;6246347;23;20004;-76
2023/03/02 06:53:54;;;;;;;83.35;34.72;;;;;;;-2.58;100.00;102402.41;6247071;23;19996;-77
2023/03/02 06:56:19;;;;;;;81.75;36.60;;;;;;;-2.52;100.00;102416.84;6246406;23;20000;-78
2023/03/02 06:58:45;;;;;;;67.00;31.48;;;;;;;-2.54;100.00;102405.88;6246600;23;20330;-77
2023/03/02 07:01:10;;;;;;;77.35;34.65;;;;;;;-2.45;100.00;102416.97;6246538;23;20009;-78
2023/03/02 07:03:36;;;;;;;70.13;32.60;;;;;;;-2.52;100.00;102410.13;6246488;23;20000;-78
2023/03/02 07:06:02;;;;;;;74.75;35.30;;;;;;;-2.56;100.00;102394.84;6245811;23;20481;-78
2023/03/02 07:08:28;;;;;;;72.03;36.20;;;;;;;-2.42;100.00;102409.44;6245897;23;20000;-78
2023/03/02 07:10:53;;;;;;;72.28;34.38;;;;;;;-2.44;100.00;102398.44;6246210;23;20065;-78
2023/03/02 07:13:19;;;;;;;72.35;34.10;;;;;;;-2.29;100.00;102412.16;6246184;23;20056;-78
2023/03/02 07:15:44;;;;;;;76.28;33.65;;;;;;;-2.20;100.00;102417.34;6246243;23;20004;-78
2023/03/02 07:18:09;;;;;;;71.80;34.58;;;;;;;-2.15;100.00;102416.59;6245909;23;20012;-79
2023/03/02 07:20:35;;;;;;;73.15;32.35;;;;;;;-2.14;100.00;102407.34;6245485;23;20425;-75
2023/03/02 07:23:00;;;;;;;69.28;31.63;;;;;;;-2.09;100.00;102413.28;6245749;23;20353;-79
2023/03/02 07:25:26;;;;;;;67.45;32.13;;;;;;;-2.02;100.00;102415.94;6246159;23;20046;-78
2023/03/02 07:27:51;;;;;;;62.75;31.95;;;;;;;-2.00;100.00;102415.13;6246256;23;20004;-79
2023/03/02 07:30:20;;;;;;;63.92;30.88;;;;;;;-1.91;100.00;102417.78;6245495;23;20456;-79
2023/03/02 07:32:45;;;;;;;65.57;30.90;;;;;;;-1.85;100.00;102418.72;6245618;23;20007;-79
2023/03/02 07:35:11;;;;;;;65.93;31.95;;;;;;;-1.96;100.00;102394.94;6245689;23;20005;-78
2023/03/02 07:40:56;;;;;;;63.03;28.25;;;;;;;-2.16;100.00;102348.25;6251993;22;20020;-77
2023/03/02 07:43:41;;;;;;;62.13;30.38;;;;;;;-2.92;100.00;102208.91;6246025;22;20008;-78
2023/03/02 07:47:02;;;;;;;61.17;29.33;;;;;;;-2.93;100.00;102190.38;6245805;22;20426;-79
2023/03/02 07:54:10;;;;;;;;;;;;;;;;;;;;;
2023/03/02 08:05:29;;;;;;;56.90;28.13;;;;;;;-1.18;100.00;102429.69;6277615;22;20015;-78
2023/03/02 08:19:53;;;;;;;51.67;25.65;;;;;;;-2.42;100.00;102164.06;6277128;22;20023;-76
2023/03/02 08:36:58;;;;;;;46.07;23.87;;;;;;;-0.41;100.00;102417.72;6245109;23;20022;-78
2023/03/02 08:39:38;;;;;;;47.10;24.30;;;;;;;-0.66;99.21;102358.34;6245500;23;20000;-77
2023/03/02 08:42:38;;;;;;;45.17;22.90;;;;;;;-0.16;99.16;102426.38;6244885;22;20083;-81
2023/03/02 08:45:38;;;;;;;46.17;24.15;;;;;;;-0.04;98.25;102421.38;6244749;23;20014;-77
2023/03/02 08:48:03;;;;;;;45.40;23.25;;;;;;;-0.71;97.66;102296.56;6245380;23;20087;-77
2023/03/02 08:57:35;;;;;;;47.22;22.73;;;;;;;0.36;96.73;102416.50;6245259;23;20030;-76
2023/03/02 09:00:08;;;;;;;40.92;21.77;;;;;;;0.20;94.28;102367.34;6245358;22;20335;-78
2023/03/02 09:02:33;;;;;;;40.55;21.77;;;;;;;0.50;92.77;102413.22;6245424;23;20390;-78
2023/03/02 09:04:59;;;;;;;44.85;22.33;;;;;;;0.57;93.89;102414.91;6245172;22;20007;-77
2023/03/02 09:07:24;;;;;;;42.60;22.17;;;;;;;0.57;91.53;102391.19;6245444;22;20007;-76
2023/03/02 09:09:49;;;;;;;39.72;20.88;;;;;;;0.47;91.77;102366.56;6245362;22;20057;-76
2023/03/02 09:12:15;;;;;;;42.33;22.48;;;;;;;0.81;91.40;102408.22;6245214;22;20035;-74
2023/03/02 09:14:42;;;;;;;40.35;20.95;;;;;;;0.89;90.23;102409.09;6245389;22;20023;-75
2023/03/02 09:17:07;;;;;;;39.95;20.65;;;;;;;0.97;90.04;102406.53;6245455;23;20012;-74
2023/03/02 09:22:59;;;;;;;36.90;20.77;;;;;;;1.15;88.38;102398.94;6336398;22;20083;-75
2023/03/02 09:51:25;;;;;;;27.65;15.25;;;;;;;1.18;80.23;102237.81;6275832;22;20027;-78
2023/03/02 09:57:38;;;;;;;27.55;15.27;;;;;;;2.24;76.21;102397.13;6277107;22;20022;-78
2023/03/02 10:06:36;;;;;;;26.42;15.13;;;;;;;2.00;74.95;102306.34;6277852;22;20012;-77
2023/03/02 10:09:23;;;;;;;26.77;14.88;;;;;;;2.57;73.75;102407.22;6250199;22;20004;-79
2023/03/02 10:19:31;;;;;;;;;;;;;;;;;;;;;
2023/03/02 10:32:24;;;;;;;26.38;14.35;;;;;;;2.80;69.78;102335.66;6276939;22;20018;-79
2023/03/02 10:34:51;;;;;;;21.38;11.68;;;;;;;3.12;68.43;102375.41;6277389;22;20057;-78
2023/03/02 10:37:21;;;;;;;22.85;13.45;;;;;;;3.24;67.33;102377.88;6277111;22;20057;-79
2023/03/02 10:39:48;;;;;;;23.85;12.70;;;;;;;3.37;66.29;102384.59;6277104;22;20057;-79
2023/03/02 10:42:19;;;;;;;19.23;12.10;;;;;;;3.28;64.29;102364.25;6277093;22;20046;-79
2023/03/02 10:44:51;;;;;;;20.73;11.70;;;;;;;3.49;62.45;102391.31;6277326;22;20007;-79
2023/03/02 10:47:26;;;;;;;;;;;;;;;3.52;65.97;102375.09;6277401;22;20018;-80
2023/03/02 10:49:53;;;;;;;18.75;11.65;;;;;;;3.44;63.18;102358.16;6277301;22;19907;-79
2023/03/02 10:52:22;;;;;;;22.92;12.13;;;;;;;3.58;64.13;102370.78;6276985;22;20003;-80
2023/03/02 10:54:48;;;;;;;23.17;12.23;;;;;;;3.62;63.22;102358.81;6276665;22;20050;-78
2023/03/02 10:57:36;;;;;;;26.65;13.43;;;;;;;3.77;64.59;102365.50;6249840;22;20000;-78
2023/03/02 11:00:13;;;;;;;24.73;13.18;;;;;;;3.91;65.60;102359.38;6276449;22;20011;-77
2023/03/02 11:02:52;;;;;;;21.77;13.38;;;;;;;3.99;62.16;102362.69;6276928;22;20007;-77
2023/03/02 11:05:28;;;;;;;26.55;14.77;;;;;;;4.03;63.25;102360.94;6277187;22;20003;-79
2023/03/02 11:07:57;;;;;;;26.17;14.95;;;;;;;4.05;62.58;102359.25;6276581;22;20034;-78
2023/03/02 11:10:27;;;;;;;21.70;12.73;;;;;;;3.95;60.63;102339.75;6277425;22;20321;-80
2023/03/02 11:12:53;;;;;;;20.10;12.30;;;;;;;4.15;59.24;102360.81;6277177;22;20057;-79
2023/03/02 11:15:31;;;;;;;24.00;14.05;;;;;;;4.22;61.40;102359.88;6277186;22;20000;-80
2023/03/02 11:18:19;;;;;;;25.70;13.40;;;;;;;4.30;62.12;102354.66;6276961;22;20000;-79
2023/03/02 11:20:47;;;;;;;23.08;12.95;;;;;;;4.37;62.07;102356.28;6276611;22;20465;-80
2023/03/02 11:23:52;;;;;;;24.77;13.68;;;;;;;4.43;63.96;102351.09;6276428;22;20052;-79
2023/03/02 12:04:01;;;;;;;20.90;12.13;;;;;;;4.88;60.62;102321.44;6276510;22;20026;-79
2023/03/02 12:33:14;;;;;;;18.73;10.80;;;;;;;5.52;57.67;102303.31;6275735;22;20024;-79
2023/03/02 12:39:50;;;;;;;17.90;10.60;;;;;;;4.34;56.97;102107.44;6274410;22;20069;-79
2023/03/02 13:18:38;;;;;;;15.93;9.07;;;;;;;6.22;51.38;102273.75;6276172;22;20042;-79
2023/03/02 13:39:11;;;;;;;16.48;8.45;;;;;;;6.61;53.50;102238.63;6278080;22;20055;-79
2023/03/02 13:50:05;;;;;;;14.52;8.98;;;;;;;6.71;51.96;102234.13;6274597;22;20430;-78
2023/03/02 13:57:08;;;;;;;15.98;8.95;;;;;;;6.73;50.93;102242.63;6157596;23;20014;-79
2023/03/02 14:06:11;;;;;;;14.18;8.73;;;;;;;5.59;52.56;102038.38;6154173;23;20020;-77
2023/03/02 14:16:15;;;;;;;;;;;;;;;;;;;;;
2023/03/02 14:19:03;;;;;;;16.08;8.35;;;;;;;6.98;53.62;102222.31;6153653;23;20388;-78
2023/03/02 14:21:45;;;;;;;15.27;9.07;;;;;;;5.88;52.63;102022.31;6153981;23;20017;-76
2023/03/02 14:25:00;;;;;;;15.90;9.07;;;;;;;7.06;54.31;102223.78;6198195;23;20066;-77
2023/03/02 14:37:32;;;;;;;15.02;8.50;;;;;;;6.07;52.81;102031.28;6277319;22;20065;-78
2023/03/02 14:40:35;;;;;;;18.17;9.10;;;;;;;7.14;54.34;102198.75;6275170;22;20000;-76
2023/03/02 14:43:00;;;;;;;18.20;8.32;;;;;;;7.15;51.60;102204.72;6248750;22;20008;-78
2023/03/02 14:45:26;;;;;;;15.30;8.05;;;;;;;7.07;52.23;102197.22;6276869;22;20014;-73
2023/03/02 14:47:51;;;;;;;15.70;8.40;;;;;;;7.12;53.01;102197.13;6277203;22;20011;-76
2023/03/02 14:50:17;;;;;;;15.40;9.27;;;;;;;7.16;52.59;102189.28;6276483;22;20045;-76
2023/03/02 14:52:48;;;;;;;16.55;9.18;;;;;;;7.13;54.06;102191.09;6276931;22;20325;-77
2023/03/02 14:55:24;;;;;;;17.33;9.68;;;;;;;6.87;55.61;102141.25;6276999;22;20008;-78
2023/03/02 14:57:54;;;;;;;17.33;9.68;;;;;;;7.04;56.31;102165.66;6276642;22;20006;-76
2023/03/02 15:00:20;;;;;;;16.30;10.50;;;;;;;7.16;57.58;102193.56;6276597;22;20004;-76
2023/03/02 15:02:47;;;;;;;17.98;10.80;;;;;;;7.14;58.74;102191.03;6277133;22;20004;-77
2023/03/02 15:05:12;;;;;;;20.17;11.65;;;;;;;7.12;59.77;102186.84;6248744;22;20452;-77
2023/03/02 15:07:38;;;;;;;19.67;11.27;;;;;;;7.11;59.57;102187.72;6276806;22;20000;-78
2023/03/02 15:13:34;;;;;;;19.42;10.60;;;;;;;7.07;58.69;102186.09;6273851;22;20024;-77
2023/03/02 15:16:18;;;;;;;16.52;9.90;;;;;;;7.02;59.19;102188.81;6276680;22;20042;-76
2023/03/02 15:18:53;;;;;;;;;;;;;;;;;;;;;
2023/03/02 15:21:31;;;;;;;17.33;10.35;;;;;;;6.93;59.59;102183.91;6274974;22;20074;-77
2023/03/02 15:23:56;;;;;;;18.17;11.18;;;;;;;6.91;60.12;102185.69;6276244;22;20003;-76
2023/03/02 15:26:22;;;;;;;18.98;10.70;;;;;;;6.77;59.77;102154.38;6276410;22;20042;-77
2023/03/02 15:28:51;;;;;;;18.58;10.20;;;;;;;6.90;60.39;102179.72;6276460;22;20003;-77
2023/03/02 15:31:17;;;;;;;18.23;10.73;;;;;;;6.86;59.99;102185.78;6276408;22;20000;-76
2023/03/02 15:33:46;;;;;;;17.90;10.95;;;;;;;6.86;59.41;102188.34;6276156;22;20003;-76
2023/03/02 15:39:08;;;;;;;19.42;11.55;;;;;;;6.18;60.65;102080.56;6275877;22;20028;-77
2023/03/02 15:41:33;;;;;;;15.30;9.88;;;;;;;6.81;60.08;102184.22;6276335;22;20022;-74
2023/03/02 15:43:58;;;;;;;17.95;9.32;;;;;;;6.78;60.76;102177.44;6275932;22;20004;-80
2023/03/02 15:46:25;;;;;;;16.95;9.73;;;;;;;6.63;60.87;102154.75;6276832;22;20010;-77
2023/03/02 15:48:52;;;;;;;16.60;10.00;;;;;;;6.75;61.91;102184.38;6223392;22;20421;-74
2023/03/02 15:51:17;;;;;;;16.77;9.93;;;;;;;6.64;61.60;102161.56;6276558;22;20000;-77
2023/03/02 15:53:43;;;;;;;17.13;10.07;;;;;;;6.70;62.68;102187.06;6276210;22;20011;-78
2023/03/02 15:56:14;;;;;;;17.80;10.73;;;;;;;6.69;61.99;102174.28;6276175;22;20038;-77
2023/03/02 15:58:47;;;;;;;18.52;10.20;;;;;;;6.56;62.29;102159.16;6276154;22;20004;-77
2023/03/02 16:01:14;;;;;;;15.95;9.82;;;;;;;6.57;62.58;102165.97;6276293;22;20452;-77
2023/03/02 16:03:41;;;;;;;16.50;9.25;;;;;;;6.56;63.76;102159.16;6276003;22;20003;-75
2023/03/02 16:06:07;;;;;;;17.58;10.23;;;;;;;6.62;64.17;102176.16;6248795;22;20329;-76
2023/03/02 16:08:33;;;;;;;16.75;9.38;;;;;;;6.50;64.54;102143.09;6276153;22;20012;-78
2023/03/02 16:11:01;;;;;;;18.00;9.63;;;;;;;6.58;65.36;102170.22;6276346;22;20007;-77
2023/03/02 16:13:29;;;;;;;16.33;10.25;;;;;;;6.41;64.81;102145.91;6274395;22;20153;-77
2023/03/02 16:15:55;;;;;;;16.05;9.43;;;;;;;6.51;65.36;102163.59;6276308;22;20440;-79
2023/03/02 16:18:20;;;;;;;16.05;9.43;;;;;;;6.54;65.66;102173.78;6276448;22;20003;-79
2023/03/02 16:20:46;;;;;;;19.23;10.40;;;;;;;6.55;65.44;102177.19;6276479;22;20022;-78
2023/03/02 16:23:11;;;;;;;16.27;9.73;;;;;;;6.47;65.80;102177.34;6249244;22;20008;-78
2023/03/02 16:25:48;;;;;;;16.98;10.00;;;;;;;6.39;66.47;102173.28;6276180;22;20477;-76
2023/03/02 16:28:16;;;;;;;18.67;10.57;;;;;;;6.31;66.23;102170.94;6276280;22;20014;-80
2023/03/02 16:30:43;;;;;;;16.63;10.48;;;;;;;6.16;66.85;102148.19;6275843;22;20004;-80
2023/03/02 16:33:13;;;;;;;16.38;9.75;;;;;;;6.33;67.10;102189.69;6275878;22;20426;-80
2023/03/02 16:35:43;;;;;;;14.98;9.40;;;;;;;6.28;66.89;102186.38;6276607;22;20016;-80
2023/03/02 16:38:08;;;;;;;16.70;10.05;;;;;;;6.01;67.13;102151.97;6275812;22;20012;-76
2023/03/02 16:40:35;;;;;;;16.42;9.25;;;;;;;6.21;67.58;102190.81;6276058;22;20015;-78
2023/03/02 16:43:01;;;;;;;17.98;9.35;;;;;;;6.16;67.28;102181.53;6276352;22;20018;-78
2023/03/02 16:45:26;;;;;;;16.45;9.98;;;;;;;5.81;68.25;102128.47;6276017;22;20004;-78
2023/03/02 16:47:52;;;;;;;16.85;10.40;;;;;;;6.12;68.24;102193.59;6276400;22;20078;-78
2023/03/02 16:58:42;;;;;;;17.25;10.18;;;;;;;5.93;69.20;102208.53;6271596;22;20081;-79
2023/03/02 17:07:41;;;;;;;18.50;10.10;;;;;;;5.26;70.36;102150.94;6278274;22;20058;-79
2023/03/02 17:28:45;;;;;;;16.90;9.88;;;;;;;3.53;74.83;102052.44;6278105;22;20452;-78
2023/03/02 17:31:57;;;;;;;17.70;10.23;;;;;;;4.56;75.29;102246.91;6250607;22;20011;-78
2023/03/02 17:37:56;;;;;;;19.17;10.60;;;;;;;3.19;76.32;102065.66;6278059;22;20073;-79
2023/03/02 17:43:52;;;;;;;18.40;10.30;;;;;;;3.03;78.09;102079.47;6277724;22;20049;-79
2023/03/02 17:46:48;;;;;;;17.38;11.10;;;;;;;4.02;78.78;102278.31;6250469;22;20000;-77
2023/03/02 17:52:37;;;;;;;21.75;11.55;;;;;;;2.71;81.41;102100.22;6277860;22;20019;-78
2023/03/02 17:55:03;;;;;;;22.48;11.63;;;;;;;3.80;81.96;102279.44;6278060;22;20007;-77
2023/03/02 17:58:14;;;;;;;;;;;;;;;;;;;;;
2023/03/02 18:00:43;;;;;;;20.05;12.18;;;;;;;3.61;82.09;102258.34;6198113;22;20083;-77
2023/03/02 18:03:26;;;;;;;21.15;11.38;;;;;;;2.80;82.51;102118.00;6250655;22;20000;-76